IST,Max TemperatureF,Mean TemperatureF,Min TemperatureF,Max Dew PointF,MeanDew PointF,Min DewpointF,Max Humidity, Mean Humidity, Min Humidity, Max Sea Level PressureIn, Mean Sea Level PressureIn, Min Sea Level PressureIn, Max VisibilityMiles, Mean VisibilityMiles, Min VisibilityMiles, Max Wind SpeedMPH, Mean Wind SpeedMPH, Max Gust SpeedMPH,PrecipitationIn, CloudCover, Events, WindDirDegrees
2012-9-1,92,84,76,81,78,75,94,80,57,29.65,29.59,29.49,4,2,1,6,3,,0.01,3,Rain,224
2012-9-2,93,84,74,81,78,73,100,84,60,29.68,29.61,29.49,4,2,1,8,2,,1.38,4,Rain-Hail-Thunderstorm,287
2012-9-3,90,82,73,82,77,73,97,87,67,29.65,29.56,29.44,3,2,0,12,3,23,0.91,5,Rain-Hail-Thunderstorm,250
2012-9-4,85,80,75,81,76,74,100,93,81,29.59,29.53,29.45,2,2,1,9,2,,3.66,6,Rain-Thunderstorm,269
2012-9-5,79,76,73,75,75,73,100,96,89,29.62,29.53,29.48,2,1,1,12,7,,0.55,8,Rain-Thunderstorm,251
2012-9-6,85,78,72,79,75,73,100,92,74,29.89,29.66,29.56,4,2,1,9,6,,3.27,7,Rain-Thunderstorm,211
2012-9-7,89,80,71,81,76,72,100,83,61,29.77,29.71,29.60,4,3,1,7,4,,0.00,5,Rain,188
2012-9-8,92,82,73,79,76,73,96,77,55,29.74,29.69,29.58,4,3,1,7,1,,0.00,3,,227
2012-9-9,91,84,77,81,76,73,100,86,70,29.74,29.63,28.65,4,2,1,9,2,,0.02,5,Rain-Thunderstorm,313
2012-9-10,90,82,75,77,76,75,100,89,66,29.71,29.64,29.55,4,2,1,6,3,,0.79,5,Rain-Hail-Thunderstorm,270
2012-9-11,88,81,74,79,76,73,100,89,69,29.68,29.62,29.54,4,2,1,7,4,,0.39,5,Rain-Thunderstorm,241
2012-9-12,88,81,74,77,75,73,100,83,66,29.74,29.68,29.59,3,2,1,7,4,,0.00,5,,255
2012-9-13,90,82,75,77,74,72,94,77,50,29.80,29.72,29.62,4,3,1,8,4,,0.00,4,,259
2012-9-14,88,81,74,77,74,73,94,79,63,29.77,29.69,29.58,4,3,1,9,3,,0.03,4,Rain,259
2012-9-15,90,82,75,77,76,73,94,79,53,29.71,29.65,29.54,4,3,1,9,4,,0.02,4,,271
2012-9-16,89,82,74,77,74,72,94,81,61,29.74,29.67,29.59,4,2,1,9,4,,0.00,5,,276
2012-9-17,90,83,76,77,75,72,100,81,57,29.77,29.71,29.64,4,3,1,6,3,,0.00,6,,283
2012-9-18,91,82,73,75,73,72,97,72,48,29.80,29.73,29.63,4,3,2,7,3,,0.00,3,,323
2012-9-19,90,82,74,78,75,72,94,82,51,29.77,29.73,29.64,4,2,1,9,3,,0.02,3,Rain,297
2012-9-20,93,84,74,77,74,72,94,76,47,29.80,29.73,29.63,4,3,1,7,3,,0.01,2,Rain,313
2012-9-21,90,82,73,79,75,73,99,85,65,29.83,29.77,29.64,4,2,1,7,3,,0.39,-449,Rain-Thunderstorm,223
2012-9-22,90,82,73,77,75,73,97,86,59,29.86,29.78,29.69,4,2,1,6,3,,0.03,5,Rain,274
2012-9-23,92,82,73,79,74,70,100,76,42,29.83,29.76,29.65,4,3,2,9,2,,0.00,3,,272
2012-9-24,92,82,73,77,74,72,94,78,51,29.83,29.76,29.65,4,3,1,7,3,,0.00,3,,280
2012-9-25,92,82,72,77,74,72,94,76,51,29.86,29.78,29.71,4,3,2,6,3,,0.00,2,,282
2012-9-26,91,81,71,77,72,70,100,79,45,29.92,29.85,29.77,4,3,1,9,4,,1.34,3,Rain,340
2012-9-27,91,80,70,75,71,66,95,72,39,29.95,29.87,29.78,4,3,1,7,4,,0.00,2,,55
2012-9-28,92,82,71,73,71,68,94,73,38,29.92,29.84,29.73,4,3,2,6,3,,0.00,2,,355
2012-9-29,91,81,71,75,72,70,94,72,47,29.89,29.81,29.71,4,3,2,7,3,,0.00,2,,3
2012-9-30,92,84,76,81,75,72,89,73,53,29.86,29.79,29.66,4,3,2,7,4,,0.00,2,,44